This is the latest recevied weather packets stored in our database for station/object KN6KS. If no packets are shown the sender has not sent any weather packets the latest 10 day(s).
| Time | Temp. | Humidity | Pressure | Rain* | Wind** | Luminosity | Snow |
|---|---|---|---|---|---|---|---|
| 1778021440 | 16.67° C | 48% | 1011.9 hPa | 0 mm | - | 598 W/m² | - |
| 1778021137 | 17.22° C | 46% | 1011.8 hPa | 0 mm | - | 541 W/m² | - |
| 1778020834 | 17.78° C | 47% | 1011.8 hPa | 0 mm | - | 666 W/m² | - |
| 1778020531 | 17.22° C | 49% | 1011.8 hPa | 0 mm | - | 683 W/m² | - |
| 1778020227 | 17.22° C | 49% | 1012 hPa | 0 mm | - | 550 W/m² | - |
| 1778019924 | 16.67° C | 50% | 1011.8 hPa | 0 mm | - | 585 W/m² | - |
| 1778019620 | 17.22° C | 48% | 1012.1 hPa | 0 mm | - | 649 W/m² | - |
| 1778019317 | 17.22° C | 50% | 1011.9 hPa | 0 mm | - | 678 W/m² | - |
| 1778019014 | 17.22° C | 49% | 1011.9 hPa | 0 mm | - | 580 W/m² | - |
| 1778018711 | 16.67° C | 50% | 1012.1 hPa | 0 mm | - | 316 W/m² | - |
| 1778018409 | 16.67° C | 50% | 1012.1 hPa | 0 mm | - | 265 W/m² | - |
| 1778018107 | 17.22° C | 50% | 1012 hPa | 0 mm | - | 353 W/m² | - |
| 1778017804 | 17.22° C | 49% | 1011.9 hPa | 0 mm | - | 847 W/m² | - |
| 1778017502 | 17.78° C | 46% | 1012.1 hPa | 0 mm | - | 691 W/m² | - |
| 1778017193 | 17.78° C | 47% | 1012 hPa | 0 mm | - | 748 W/m² | - |
| 1778016891 | 16.67° C | 51% | 1012.1 hPa | 0 mm | - | 724 W/m² | - |
| 1778016587 | 16.67° C | 50% | 1012.2 hPa | 0 mm | - | 712 W/m² | - |
| 1778016284 | 16.67° C | 50% | 1012.2 hPa | 0 mm | - | 717 W/m² | - |
| 1778015980 | 16.67° C | 50% | 1012 hPa | 0 mm | - | 686 W/m² | - |
| 1778015678 | 16.67° C | 51% | 1012 hPa | 0 mm | - | 664 W/m² | - |
| 1778015374 | 17.78° C | 50% | 1012.1 hPa | 0 mm | - | 721 W/m² | - |
| 1778015071 | 16.67° C | 52% | 1012.2 hPa | 0 mm | - | 739 W/m² | - |
| 1778014768 | 17.22° C | 50% | 1012.2 hPa | 0 mm | - | 775 W/m² | - |
| 1778014467 | 16.67° C | 51% | 1012.1 hPa | 0 mm | - | 846 W/m² | - |
| 1778014163 | 16.67° C | 51% | 1012.1 hPa | 0 mm | - | 849 W/m² | - |
* Rain latest hour (hover to see other rain measurements)
** Current wind speed in m/s (hover to see current wind gust speed)